Prestonwood, Texas
Current Conditions -  °F | °C
As of 1:55 AM on Sunday 26 Oct 2014 (Local Time) from KADS Reporting Station
Clear Clear  
Wind Chill: 74°   Ceiling: Unl
Heat Index: 74°   Visibility: 10mi
Dew Point: 63°   Wind: 5mph
Humidity: 68%   Direction: 190°S
Pressure: 30.04"   Gusts: NA
Location:  32.9988°N, 96.7873°W
Report Text: KADS 260655Z AUTO 19004KT 10SM CLR 23/17 A3004 RMK AO2 T02330170
Loading
Personal Weather Stations






























Interactive Weather Map
Tropical Storm Tracking
New forecast layout! Learn more

10-Day Weather Forecast

Advertisements
Track Severe Weather on mobile